Main page
METAR-TAF:

METAR-TAF

Airports :

Brussels South Charleroi Airport

Charleroi, Belgium

latitude: 50-28N, longitude: 004-27E, elevation: 187 m

Current weather observation

The report was made 24 minutes ago, at 16:50 UTC
Wind 5 kt from the North/Northwest, varying between West/Southwest and North/Northeast
Temperature 26°C
Humidity 32%
Pressure 1017 hPa
Visibility 10 km or more
no clouds below 1500 m and no cumulonimbus

METAR: EBCI 191650Z 34005KT 250V030 CAVOK 26/08 Q1017 NOSIG

Time: 19:14 (17:14 UTC)

Forecast

The report was made 6 hours and 14 minutes ago, at 11:00 UTC
Forecast valid from 19 at 12 UTC to 20 at 18 UTC
Wind 5 kt from the North/Northwest
Visibility 10 km or more
Few clouds at a height of 4500 ft
Probability 40% :
Temporary
from 20 at 12 UTC to 20 at 18 UTC
Visibility: 3500 m
rain showers, thunderstorm, rain

TAF: EBCI 191100Z 1912/2018 34005KT 9999 FEW045 PROB40 TEMPO 2012/2018 3500 SHRA TSRA

Weather observations and forecasts of more than 4000 airports (METAR and TAF reports).

The available stations are represented by yellow and red dots on the map.

Hover mouse over dot to see the name of the station.

Then click to see weather observations and forecasts.

To change the map : click on the green buttons with a black cross to zoom in, on the green button with a dash to zoom out, or on the green arrows for adjacent maps.


METAR-TAF: